AKDT,Max TemperatureF,Mean TemperatureF,Min TemperatureF,Max Dew PointF,MeanDew PointF,Min DewpointF,Max Humidity, Mean Humidity, Min Humidity, Max Sea Level PressureIn, Mean Sea Level PressureIn, Min Sea Level PressureIn, Max VisibilityMiles, Mean VisibilityMiles, Min VisibilityMiles, Max Wind SpeedMPH, Mean Wind SpeedMPH, Max Gust SpeedMPH,PrecipitationIn, CloudCover, Events, WindDirDegrees
2013-7-1,78,70,62,52,46,39,70,45,22,29.63,29.53,29.44,10,10,10,20,6,31,0.02,6,Rain-Thunderstorm,297
2013-7-2,72,63,53,52,43,37,81,50,20,29.72,29.60,29.53,10,10,6,10,4,17,0.04,6,Rain,209
2013-7-3,69,61,53,50,44,38,74,53,28,29.91,29.86,29.74,10,10,10,7,4,,T,5,Rain,163
2013-7-4,70,59,48,45,42,37,74,53,22,30.01,29.91,29.87,10,10,10,14,6,24,T,6,Rain,274
2013-7-5,67,57,47,50,45,40,93,65,40,30.06,30.01,29.95,10,10,10,12,4,,0.03,6,Fog-Rain,337
2013-7-6,75,61,47,46,44,41,83,52,23,29.96,29.86,29.73,10,7,2,6,2,,0.00,5,,47
2013-7-7,72,62,52,48,44,39,77,48,23,29.73,29.60,29.51,10,8,2,13,5,18,0.00,7,,104
2013-7-8,65,58,51,54,49,45,89,73,54,29.72,29.63,29.55,10,10,7,12,3,,0.19,7,Rain,235
2013-7-9,67,60,52,51,47,45,84,68,52,29.99,29.89,29.73,10,10,10,15,6,22,T,6,Rain,239
2013-7-10,61,57,53,51,48,45,90,77,60,30.05,30.01,29.99,10,8,2,12,8,,0.12,8,Rain,284
2013-7-11,69,61,52,51,49,46,93,70,37,30.09,30.06,30.04,10,8,2,7,1,,0.00,6,,81
2013-7-12,80,67,53,46,41,36,69,41,15,30.06,30.01,29.95,10,10,10,16,5,,0.00,2,,40
2013-7-13,84,70,56,55,42,37,64,34,11,30.01,29.99,29.96,10,10,10,13,5,,0.00,1,,42
2013-7-14,87,71,55,57,48,44,73,43,16,30.11,30.07,30.00,10,10,7,14,4,,0.00,3,,264
2013-7-15,80,71,62,57,51,47,78,50,22,30.18,30.13,30.09,10,10,10,16,4,,0.00,6,,266
2013-7-16,68,65,61,54,52,48,78,60,41,30.17,30.13,30.10,10,10,10,13,6,,T,7,,246
2013-7-17,73,66,59,54,50,47,80,61,33,30.10,30.08,30.04,10,10,10,13,5,16,0.00,6,,250
2013-7-18,72,65,57,57,52,45,90,69,27,30.14,30.09,30.04,10,9,2,8,3,,0.51,6,Rain,254
2013-7-19,64,61,58,58,55,51,93,85,67,30.11,30.09,30.06,10,6,1,15,6,23,0.05,8,Rain,230
2013-7-20,66,60,54,52,50,48,89,74,50,30.11,30.10,30.08,10,10,6,16,9,25,0.04,7,Rain,242
2013-7-21,69,61,52,52,49,47,83,62,43,30.17,30.13,30.10,10,10,10,9,6,,T,6,,245
2013-7-22,74,61,48,55,48,45,89,62,31,30.22,30.16,30.10,10,10,10,9,3,,0.00,4,,274
2013-7-23,80,69,57,57,52,49,83,58,29,30.13,30.08,30.01,10,10,10,8,2,,0.00,4,,245
2013-7-24,75,67,58,58,55,54,87,66,45,30.03,30.00,29.96,10,10,10,16,4,21,0.01,6,Rain,242
2013-7-25,75,67,59,56,50,39,83,57,29,30.06,30.02,29.97,10,10,10,10,7,,T,6,Rain,242
2013-7-26,75,63,51,56,49,44,83,57,27,30.18,30.13,30.06,10,10,10,14,4,17,0.00,6,,272
2013-7-27,81,68,54,55,53,51,87,59,31,30.25,30.22,30.19,10,10,10,15,3,,0.00,5,,268
2013-7-28,88,72,56,56,53,49,81,50,21,30.20,30.14,30.04,10,10,10,14,4,20,0.00,5,,286
2013-7-29,80,72,63,56,53,48,73,50,27,30.12,30.10,30.05,10,10,10,16,7,22,0.00,5,,248
2013-7-30,77,67,56,53,51,48,81,56,29,30.19,30.16,30.12,10,10,10,15,4,21,0.00,3,,263
2013-7-31,82,67,51,54,50,46,83,55,24,30.17,30.10,30.01,10,10,10,10,3,,0.00,2,,281